sensor_id;sensor_type;location;lat;lon;timestamp;P1;durP1;ratioP1;P2;durP2;ratioP2
11344;SDS011;5727;42.600;23.028;2022-09-25T00:00:33;16.17;;;11.60;;
11344;SDS011;5727;42.600;23.028;2022-09-25T00:03:00;14.77;;;10.47;;
11344;SDS011;5727;42.600;23.028;2022-09-25T00:05:27;12.97;;;9.73;;
11344;SDS011;5727;42.600;23.028;2022-09-25T00:07:54;11.90;;;9.73;;
11344;SDS011;5727;42.600;23.028;2022-09-25T00:10:22;15.07;;;10.47;;
11344;SDS011;5727;42.600;23.028;2022-09-25T00:12:49;13.10;;;9.97;;
11344;SDS011;5727;42.600;23.028;2022-09-25T00:15:16;14.67;;;9.97;;
11344;SDS011;5727;42.600;23.028;2022-09-25T00:17:43;21.90;;;10.07;;
11344;SDS011;5727;42.600;23.028;2022-09-25T00:20:10;12.40;;;9.73;;
11344;SDS011;5727;42.600;23.028;2022-09-25T00:22:36;13.33;;;9.53;;
11344;SDS011;5727;42.600;23.028;2022-09-25T00:25:03;10.97;;;9.27;;
11344;SDS011;5727;42.600;23.028;2022-09-25T00:27:32;13.90;;;8.97;;
11344;SDS011;5727;42.600;23.028;2022-09-25T00:29:59;12.53;;;9.53;;
11344;SDS011;5727;42.600;23.028;2022-09-25T00:32:25;16.77;;;9.93;;
11344;SDS011;5727;42.600;23.028;2022-09-25T00:34:52;13.53;;;9.90;;
11344;SDS011;5727;42.600;23.028;2022-09-25T00:37:19;14.43;;;10.30;;
11344;SDS011;5727;42.600;23.028;2022-09-25T00:39:46;15.10;;;10.23;;
11344;SDS011;5727;42.600;23.028;2022-09-25T00:42:13;12.93;;;9.23;;
11344;SDS011;5727;42.600;23.028;2022-09-25T00:44:59;14.43;;;10.07;;
11344;SDS011;5727;42.600;23.028;2022-09-25T00:47:29;13.03;;;10.10;;
11344;SDS011;5727;42.600;23.028;2022-09-25T00:50:10;14.73;;;10.43;;
11344;SDS011;5727;42.600;23.028;2022-09-25T00:52:42;14.67;;;10.80;;
11344;SDS011;5727;42.600;23.028;2022-09-25T00:55:10;16.33;;;11.47;;
11344;SDS011;5727;42.600;23.028;2022-09-25T00:57:38;16.33;;;11.17;;
11344;SDS011;5727;42.600;23.028;2022-09-25T01:00:12;13.90;;;10.80;;
11344;SDS011;5727;42.600;23.028;2022-09-25T01:02:41;14.00;;;11.03;;
11344;SDS011;5727;42.600;23.028;2022-09-25T01:05:12;14.50;;;11.37;;
11344;SDS011;5727;42.600;23.028;2022-09-25T01:07:43;13.47;;;11.13;;
11344;SDS011;5727;42.600;23.028;2022-09-25T01:10:11;15.40;;;10.60;;
11344;SDS011;5727;42.600;23.028;2022-09-25T01:12:40;11.17;;;9.63;;
11344;SDS011;5727;42.600;23.028;2022-09-25T01:15:09;18.43;;;11.07;;
11344;SDS011;5727;42.600;23.028;2022-09-25T01:17:41;13.13;;;11.20;;
11344;SDS011;5727;42.600;23.028;2022-09-25T01:20:15;16.27;;;12.20;;
11344;SDS011;5727;42.600;23.028;2022-09-25T01:22:50;15.73;;;12.07;;
11344;SDS011;5727;42.600;23.028;2022-09-25T01:25:33;18.33;;;11.57;;
11344;SDS011;5727;42.600;23.028;2022-09-25T01:28:16;14.20;;;11.90;;
11344;SDS011;5727;42.600;23.028;2022-09-25T01:30:57;15.27;;;11.57;;
11344;SDS011;5727;42.600;23.028;2022-09-25T01:33:29;16.87;;;12.87;;
11344;SDS011;5727;42.600;23.028;2022-09-25T01:36:01;13.80;;;12.03;;
11344;SDS011;5727;42.600;23.028;2022-09-25T01:38:33;15.17;;;11.63;;
11344;SDS011;5727;42.600;23.028;2022-09-25T01:41:06;14.53;;;11.07;;
11344;SDS011;5727;42.600;23.028;2022-09-25T01:43:37;15.90;;;12.50;;
11344;SDS011;5727;42.600;23.028;2022-09-25T01:46:10;20.90;;;14.40;;
11344;SDS011;5727;42.600;23.028;2022-09-25T01:48:41;25.17;;;15.60;;
11344;SDS011;5727;42.600;23.028;2022-09-25T01:51:13;24.23;;;17.03;;
11344;SDS011;5727;42.600;23.028;2022-09-25T01:53:45;21.00;;;16.53;;
11344;SDS011;5727;42.600;23.028;2022-09-25T01:56:16;28.83;;;17.03;;
11344;SDS011;5727;42.600;23.028;2022-09-25T01:58:51;27.07;;;16.80;;
11344;SDS011;5727;42.600;23.028;2022-09-25T02:01:24;22.50;;;16.60;;
11344;SDS011;5727;42.600;23.028;2022-09-25T02:03:56;25.30;;;15.57;;
11344;SDS011;5727;42.600;23.028;2022-09-25T02:06:27;22.87;;;15.03;;
11344;SDS011;5727;42.600;23.028;2022-09-25T02:08:59;21.90;;;15.10;;
11344;SDS011;5727;42.600;23.028;2022-09-25T02:11:30;20.33;;;15.23;;
11344;SDS011;5727;42.600;23.028;2022-09-25T02:14:02;19.40;;;14.17;;
11344;SDS011;5727;42.600;23.028;2022-09-25T02:16:36;18.63;;;14.07;;
11344;SDS011;5727;42.600;23.028;2022-09-25T02:19:07;21.27;;;14.33;;
11344;SDS011;5727;42.600;23.028;2022-09-25T02:21:53;18.20;;;13.13;;
11344;SDS011;5727;42.600;23.028;2022-09-25T02:24:30;17.43;;;12.40;;
11344;SDS011;5727;42.600;23.028;2022-09-25T02:27:04;14.70;;;11.57;;
11344;SDS011;5727;42.600;23.028;2022-09-25T02:29:31;14.47;;;12.40;;
11344;SDS011;5727;42.600;23.028;2022-09-25T02:32:01;14.83;;;10.63;;
11344;SDS011;5727;42.600;23.028;2022-09-25T02:34:30;15.33;;;11.63;;
11344;SDS011;5727;42.600;23.028;2022-09-25T02:36:56;18.90;;;12.57;;
11344;SDS011;5727;42.600;23.028;2022-09-25T02:39:24;15.27;;;11.63;;
11344;SDS011;5727;42.600;23.028;2022-09-25T02:41:58;20.87;;;12.90;;
11344;SDS011;5727;42.600;23.028;2022-09-25T02:44:46;17.67;;;11.83;;
11344;SDS011;5727;42.600;23.028;2022-09-25T02:47:29;15.60;;;12.33;;
11344;SDS011;5727;42.600;23.028;2022-09-25T02:50:02;18.10;;;12.30;;
11344;SDS011;5727;42.600;23.028;2022-09-25T02:52:39;12.30;;;10.87;;
11344;SDS011;5727;42.600;23.028;2022-09-25T02:55:14;14.87;;;11.63;;
11344;SDS011;5727;42.600;23.028;2022-09-25T02:57:47;15.80;;;12.13;;
11344;SDS011;5727;42.600;23.028;2022-09-25T03:00:18;14.07;;;11.53;;
11344;SDS011;5727;42.600;23.028;2022-09-25T03:02:48;15.73;;;11.93;;
11344;SDS011;5727;42.600;23.028;2022-09-25T03:05:18;17.47;;;11.60;;
11344;SDS011;5727;42.600;23.028;2022-09-25T03:07:46;15.87;;;11.40;;
11344;SDS011;5727;42.600;23.028;2022-09-25T03:10:31;17.90;;;12.50;;
11344;SDS011;5727;42.600;23.028;2022-09-25T03:13:11;15.53;;;11.37;;
11344;SDS011;5727;42.600;23.028;2022-09-25T03:15:39;16.67;;;11.53;;
11344;SDS011;5727;42.600;23.028;2022-09-25T03:18:10;16.97;;;12.40;;
11344;SDS011;5727;42.600;23.028;2022-09-25T03:20:38;12.70;;;11.03;;
11344;SDS011;5727;42.600;23.028;2022-09-25T03:23:05;15.20;;;11.40;;
11344;SDS011;5727;42.600;23.028;2022-09-25T03:25:32;17.03;;;12.03;;
11344;SDS011;5727;42.600;23.028;2022-09-25T03:27:59;15.13;;;11.67;;
11344;SDS011;5727;42.600;23.028;2022-09-25T03:30:26;14.07;;;11.03;;
11344;SDS011;5727;42.600;23.028;2022-09-25T03:32:53;16.27;;;11.93;;
11344;SDS011;5727;42.600;23.028;2022-09-25T03:35:21;14.87;;;10.93;;
11344;SDS011;5727;42.600;23.028;2022-09-25T03:37:48;13.43;;;10.73;;
11344;SDS011;5727;42.600;23.028;2022-09-25T03:40:15;11.83;;;10.23;;
11344;SDS011;5727;42.600;23.028;2022-09-25T03:42:41;11.57;;;10.20;;
11344;SDS011;5727;42.600;23.028;2022-09-25T03:45:08;12.73;;;11.10;;
11344;SDS011;5727;42.600;23.028;2022-09-25T03:47:35;17.33;;;11.13;;
11344;SDS011;5727;42.600;23.028;2022-09-25T03:50:02;13.80;;;11.83;;
11344;SDS011;5727;42.600;23.028;2022-09-25T03:52:33;13.20;;;10.07;;
11344;SDS011;5727;42.600;23.028;2022-09-25T03:55:00;16.97;;;10.90;;
11344;SDS011;5727;42.600;23.028;2022-09-25T03:57:27;15.33;;;10.87;;
11344;SDS011;5727;42.600;23.028;2022-09-25T03:59:55;16.73;;;11.63;;
11344;SDS011;5727;42.600;23.028;2022-09-25T04:02:25;11.17;;;9.23;;
11344;SDS011;5727;42.600;23.028;2022-09-25T04:04:52;15.97;;;10.07;;
11344;SDS011;5727;42.600;23.028;2022-09-25T04:07:19;18.50;;;10.67;;
11344;SDS011;5727;42.600;23.028;2022-09-25T04:09:47;14.03;;;10.40;;
11344;SDS011;5727;42.600;23.028;2022-09-25T04:12:14;12.90;;;10.03;;
11344;SDS011;5727;42.600;23.028;2022-09-25T04:14:41;15.00;;;12.03;;
11344;SDS011;5727;42.600;23.028;2022-09-25T04:17:11;17.83;;;11.53;;
11344;SDS011;5727;42.600;23.028;2022-09-25T04:19:38;14.23;;;10.87;;
11344;SDS011;5727;42.600;23.028;2022-09-25T04:22:05;14.27;;;11.63;;
11344;SDS011;5727;42.600;23.028;2022-09-25T04:24:31;19.30;;;11.87;;
11344;SDS011;5727;42.600;23.028;2022-09-25T04:27:19;14.93;;;12.10;;
11344;SDS011;5727;42.600;23.028;2022-09-25T04:29:47;17.27;;;11.50;;
11344;SDS011;5727;42.600;23.028;2022-09-25T04:32:15;16.67;;;11.30;;
11344;SDS011;5727;42.600;23.028;2022-09-25T04:34:59;14.40;;;11.30;;
11344;SDS011;5727;42.600;23.028;2022-09-25T04:37:27;15.13;;;11.17;;
11344;SDS011;5727;42.600;23.028;2022-09-25T04:39:54;18.53;;;11.30;;
11344;SDS011;5727;42.600;23.028;2022-09-25T04:42:23;13.67;;;11.37;;
11344;SDS011;5727;42.600;23.028;2022-09-25T04:44:50;12.67;;;10.73;;
11344;SDS011;5727;42.600;23.028;2022-09-25T04:47:18;12.27;;;10.93;;
11344;SDS011;5727;42.600;23.028;2022-09-25T04:49:45;15.13;;;10.80;;
11344;SDS011;5727;42.600;23.028;2022-09-25T04:52:12;13.63;;;10.73;;
11344;SDS011;5727;42.600;23.028;2022-09-25T04:54:39;14.50;;;11.10;;
11344;SDS011;5727;42.600;23.028;2022-09-25T04:57:07;18.10;;;12.13;;
11344;SDS011;5727;42.600;23.028;2022-09-25T04:59:35;12.97;;;10.50;;
11344;SDS011;5727;42.600;23.028;2022-09-25T05:02:02;15.53;;;10.20;;
11344;SDS011;5727;42.600;23.028;2022-09-25T05:04:29;15.17;;;11.10;;
11344;SDS011;5727;42.600;23.028;2022-09-25T05:06:56;15.53;;;11.70;;
11344;SDS011;5727;42.600;23.028;2022-09-25T05:09:23;14.07;;;11.97;;
11344;SDS011;5727;42.600;23.028;2022-09-25T05:11:49;16.33;;;14.63;;
11344;SDS011;5727;42.600;23.028;2022-09-25T05:14:16;17.93;;;13.47;;
11344;SDS011;5727;42.600;23.028;2022-09-25T05:16:45;13.30;;;10.60;;
11344;SDS011;5727;42.600;23.028;2022-09-25T05:19:12;12.07;;;10.37;;
11344;SDS011;5727;42.600;23.028;2022-09-25T05:21:39;11.47;;;10.23;;
11344;SDS011;5727;42.600;23.028;2022-09-25T05:24:06;13.60;;;11.37;;
11344;SDS011;5727;42.600;23.028;2022-09-25T05:26:33;15.47;;;10.90;;
11344;SDS011;5727;42.600;23.028;2022-09-25T05:29:00;13.43;;;11.40;;
11344;SDS011;5727;42.600;23.028;2022-09-25T05:31:27;14.07;;;10.53;;
11344;SDS011;5727;42.600;23.028;2022-09-25T05:33:55;12.63;;;10.43;;
11344;SDS011;5727;42.600;23.028;2022-09-25T05:36:22;13.40;;;9.87;;
11344;SDS011;5727;42.600;23.028;2022-09-25T05:38:49;10.33;;;9.33;;
11344;SDS011;5727;42.600;23.028;2022-09-25T05:41:16;11.63;;;9.63;;
11344;SDS011;5727;42.600;23.028;2022-09-25T05:43:43;11.77;;;10.00;;
11344;SDS011;5727;42.600;23.028;2022-09-25T05:46:11;15.03;;;10.00;;
11344;SDS011;5727;42.600;23.028;2022-09-25T05:48:39;12.27;;;10.33;;
11344;SDS011;5727;42.600;23.028;2022-09-25T05:51:07;13.37;;;10.23;;
11344;SDS011;5727;42.600;23.028;2022-09-25T05:53:35;13.93;;;10.87;;
11344;SDS011;5727;42.600;23.028;2022-09-25T05:56:02;14.30;;;10.57;;
11344;SDS011;5727;42.600;23.028;2022-09-25T05:58:31;18.40;;;11.47;;
11344;SDS011;5727;42.600;23.028;2022-09-25T06:00:59;18.83;;;10.73;;
11344;SDS011;5727;42.600;23.028;2022-09-25T06:03:27;18.30;;;10.23;;
11344;SDS011;5727;42.600;23.028;2022-09-25T06:05:54;11.53;;;9.67;;
11344;SDS011;5727;42.600;23.028;2022-09-25T06:08:22;10.50;;;9.33;;
11344;SDS011;5727;42.600;23.028;2022-09-25T06:10:50;11.97;;;10.00;;
11344;SDS011;5727;42.600;23.028;2022-09-25T06:13:19;10.30;;;8.30;;
11344;SDS011;5727;42.600;23.028;2022-09-25T06:15:46;10.70;;;9.43;;
11344;SDS011;5727;42.600;23.028;2022-09-25T06:18:14;13.17;;;8.67;;
11344;SDS011;5727;42.600;23.028;2022-09-25T06:20:41;11.63;;;8.80;;
11344;SDS011;5727;42.600;23.028;2022-09-25T06:23:08;10.63;;;8.53;;
11344;SDS011;5727;42.600;23.028;2022-09-25T06:25:36;10.93;;;9.17;;
11344;SDS011;5727;42.600;23.028;2022-09-25T06:28:03;11.10;;;8.60;;
11344;SDS011;5727;42.600;23.028;2022-09-25T06:30:31;9.87;;;7.90;;
11344;SDS011;5727;42.600;23.028;2022-09-25T06:32:59;18.93;;;10.43;;
11344;SDS011;5727;42.600;23.028;2022-09-25T06:35:26;11.30;;;9.23;;
11344;SDS011;5727;42.600;23.028;2022-09-25T06:37:55;20.17;;;9.47;;
11344;SDS011;5727;42.600;23.028;2022-09-25T06:40:22;11.43;;;9.40;;
11344;SDS011;5727;42.600;23.028;2022-09-25T06:42:55;11.57;;;8.97;;
11344;SDS011;5727;42.600;23.028;2022-09-25T06:45:22;9.27;;;8.27;;
11344;SDS011;5727;42.600;23.028;2022-09-25T06:47:49;20.27;;;11.03;;
11344;SDS011;5727;42.600;23.028;2022-09-25T06:50:16;16.63;;;10.30;;
11344;SDS011;5727;42.600;23.028;2022-09-25T06:52:43;13.87;;;9.07;;
11344;SDS011;5727;42.600;23.028;2022-09-25T06:55:10;12.53;;;10.37;;
11344;SDS011;5727;42.600;23.028;2022-09-25T06:57:36;10.50;;;9.50;;
11344;SDS011;5727;42.600;23.028;2022-09-25T07:00:05;16.07;;;9.20;;
11344;SDS011;5727;42.600;23.028;2022-09-25T07:02:33;15.33;;;9.30;;
11344;SDS011;5727;42.600;23.028;2022-09-25T07:05:16;10.83;;;8.80;;
11344;SDS011;5727;42.600;23.028;2022-09-25T07:07:44;15.67;;;9.03;;
11344;SDS011;5727;42.600;23.028;2022-09-25T07:10:11;11.50;;;8.70;;
11344;SDS011;5727;42.600;23.028;2022-09-25T07:12:38;14.27;;;8.37;;
11344;SDS011;5727;42.600;23.028;2022-09-25T07:15:07;11.97;;;8.37;;
11344;SDS011;5727;42.600;23.028;2022-09-25T07:17:36;10.47;;;8.53;;
11344;SDS011;5727;42.600;23.028;2022-09-25T07:20:02;10.10;;;8.63;;
11344;SDS011;5727;42.600;23.028;2022-09-25T07:22:31;15.37;;;10.23;;
11344;SDS011;5727;42.600;23.028;2022-09-25T07:24:57;10.97;;;8.97;;
11344;SDS011;5727;42.600;23.028;2022-09-25T07:27:24;9.90;;;8.70;;
11344;SDS011;5727;42.600;23.028;2022-09-25T07:29:51;12.90;;;9.23;;
11344;SDS011;5727;42.600;23.028;2022-09-25T07:32:19;13.93;;;9.40;;
11344;SDS011;5727;42.600;23.028;2022-09-25T07:34:45;12.67;;;9.47;;
11344;SDS011;5727;42.600;23.028;2022-09-25T07:37:14;10.63;;;8.27;;
11344;SDS011;5727;42.600;23.028;2022-09-25T07:39:41;12.60;;;9.80;;
11344;SDS011;5727;42.600;23.028;2022-09-25T07:42:07;10.30;;;8.53;;
11344;SDS011;5727;42.600;23.028;2022-09-25T07:44:34;15.23;;;8.70;;
11344;SDS011;5727;42.600;23.028;2022-09-25T07:47:01;11.63;;;8.47;;
11344;SDS011;5727;42.600;23.028;2022-09-25T07:49:30;16.07;;;9.20;;
11344;SDS011;5727;42.600;23.028;2022-09-25T07:51:57;12.57;;;9.23;;
11344;SDS011;5727;42.600;23.028;2022-09-25T07:54:24;11.10;;;7.93;;
11344;SDS011;5727;42.600;23.028;2022-09-25T07:56:51;10.77;;;7.90;;
11344;SDS011;5727;42.600;23.028;2022-09-25T07:59:18;12.27;;;8.03;;
11344;SDS011;5727;42.600;23.028;2022-09-25T08:01:45;10.57;;;7.07;;
11344;SDS011;5727;42.600;23.028;2022-09-25T08:04:11;8.60;;;7.13;;
11344;SDS011;5727;42.600;23.028;2022-09-25T08:06:40;10.87;;;6.03;;
11344;SDS011;5727;42.600;23.028;2022-09-25T08:09:06;7.97;;;5.90;;
11344;SDS011;5727;42.600;23.028;2022-09-25T08:11:33;8.80;;;6.13;;
11344;SDS011;5727;42.600;23.028;2022-09-25T08:14:00;9.63;;;6.50;;
11344;SDS011;5727;42.600;23.028;2022-09-25T08:16:28;10.53;;;6.87;;
11344;SDS011;5727;42.600;23.028;2022-09-25T08:18:54;7.83;;;5.87;;
11344;SDS011;5727;42.600;23.028;2022-09-25T08:21:21;5.63;;;4.20;;
11344;SDS011;5727;42.600;23.028;2022-09-25T08:23:50;5.37;;;4.10;;
11344;SDS011;5727;42.600;23.028;2022-09-25T08:26:19;5.03;;;3.80;;
11344;SDS011;5727;42.600;23.028;2022-09-25T08:28:47;3.17;;;2.87;;
11344;SDS011;5727;42.600;23.028;2022-09-25T08:31:14;2.57;;;2.37;;
11344;SDS011;5727;42.600;23.028;2022-09-25T08:33:43;5.73;;;2.90;;
11344;SDS011;5727;42.600;23.028;2022-09-25T08:36:10;5.47;;;2.70;;
11344;SDS011;5727;42.600;23.028;2022-09-25T08:38:37;3.50;;;2.70;;
11344;SDS011;5727;42.600;23.028;2022-09-25T08:41:06;4.57;;;2.50;;
11344;SDS011;5727;42.600;23.028;2022-09-25T08:43:36;3.87;;;2.80;;
11344;SDS011;5727;42.600;23.028;2022-09-25T08:46:09;3.57;;;2.80;;
11344;SDS011;5727;42.600;23.028;2022-09-25T08:49:01;5.07;;;2.50;;
11344;SDS011;5727;42.600;23.028;2022-09-25T08:51:30;4.80;;;2.60;;
11344;SDS011;5727;42.600;23.028;2022-09-25T08:53:59;4.47;;;2.57;;
11344;SDS011;5727;42.600;23.028;2022-09-25T08:56:28;4.77;;;2.70;;
11344;SDS011;5727;42.600;23.028;2022-09-25T08:58:59;3.57;;;2.37;;
11344;SDS011;5727;42.600;23.028;2022-09-25T09:01:39;6.47;;;2.47;;
11344;SDS011;5727;42.600;23.028;2022-09-25T09:04:12;3.80;;;2.30;;
11344;SDS011;5727;42.600;23.028;2022-09-25T09:06:44;4.60;;;2.50;;
11344;SDS011;5727;42.600;23.028;2022-09-25T09:09:19;3.40;;;2.43;;
11344;SDS011;5727;42.600;23.028;2022-09-25T09:11:53;4.40;;;2.17;;
11344;SDS011;5727;42.600;23.028;2022-09-25T09:14:27;3.87;;;2.40;;
11344;SDS011;5727;42.600;23.028;2022-09-25T09:16:58;3.97;;;2.40;;
11344;SDS011;5727;42.600;23.028;2022-09-25T09:19:25;5.50;;;2.40;;
11344;SDS011;5727;42.600;23.028;2022-09-25T09:21:54;6.57;;;2.37;;
11344;SDS011;5727;42.600;23.028;2022-09-25T09:24:30;2.47;;;2.27;;
11344;SDS011;5727;42.600;23.028;2022-09-25T09:27:16;3.80;;;2.00;;
11344;SDS011;5727;42.600;23.028;2022-09-25T09:30:08;6.30;;;2.60;;
11344;SDS011;5727;42.600;23.028;2022-09-25T09:32:47;4.83;;;2.37;;
11344;SDS011;5727;42.600;23.028;2022-09-25T09:35:43;2.93;;;2.20;;
11344;SDS011;5727;42.600;23.028;2022-09-25T09:38:20;4.40;;;2.47;;
11344;SDS011;5727;42.600;23.028;2022-09-25T09:43:57;2.43;;;2.00;;
11344;SDS011;5727;42.600;23.028;2022-09-25T09:46:34;4.53;;;2.03;;
11344;SDS011;5727;42.600;23.028;2022-09-25T09:49:09;3.53;;;1.90;;
11344;SDS011;5727;42.600;23.028;2022-09-25T09:51:42;5.57;;;2.13;;
11344;SDS011;5727;42.600;23.028;2022-09-25T09:54:15;3.53;;;2.10;;
11344;SDS011;5727;42.600;23.028;2022-09-25T09:56:46;2.70;;;2.17;;
11344;SDS011;5727;42.600;23.028;2022-09-25T09:59:17;2.57;;;2.00;;
11344;SDS011;5727;42.600;23.028;2022-09-25T10:01:49;4.73;;;2.00;;
11344;SDS011;5727;42.600;23.028;2022-09-25T10:04:24;5.10;;;1.87;;
11344;SDS011;5727;42.600;23.028;2022-09-25T10:06:57;1.83;;;1.73;;
11344;SDS011;5727;42.600;23.028;2022-09-25T10:09:26;3.20;;;2.00;;
11344;SDS011;5727;42.600;23.028;2022-09-25T10:11:55;2.70;;;2.00;;
11344;SDS011;5727;42.600;23.028;2022-09-25T10:14:28;2.13;;;1.90;;
11344;SDS011;5727;42.600;23.028;2022-09-25T10:16:58;3.23;;;1.90;;
11344;SDS011;5727;42.600;23.028;2022-09-25T10:19:27;2.23;;;1.67;;
11344;SDS011;5727;42.600;23.028;2022-09-25T10:21:58;5.07;;;1.97;;
11344;SDS011;5727;42.600;23.028;2022-09-25T10:24:44;4.40;;;1.50;;
11344;SDS011;5727;42.600;23.028;2022-09-25T10:27:20;3.10;;;1.73;;
11344;SDS011;5727;42.600;23.028;2022-09-25T10:30:08;2.60;;;1.67;;
11344;SDS011;5727;42.600;23.028;2022-09-25T10:32:43;3.80;;;1.60;;
11344;SDS011;5727;42.600;23.028;2022-09-25T10:35:14;3.03;;;1.40;;
11344;SDS011;5727;42.600;23.028;2022-09-25T10:37:42;4.63;;;1.63;;
11344;SDS011;5727;42.600;23.028;2022-09-25T10:40:20;1.57;;;1.23;;
11344;SDS011;5727;42.600;23.028;2022-09-25T10:43:03;6.00;;;1.60;;
11344;SDS011;5727;42.600;23.028;2022-09-25T10:45:33;3.70;;;1.60;;
11344;SDS011;5727;42.600;23.028;2022-09-25T10:48:18;2.63;;;1.60;;
11344;SDS011;5727;42.600;23.028;2022-09-25T10:51:07;1.87;;;1.50;;
11344;SDS011;5727;42.600;23.028;2022-09-25T10:53:35;2.37;;;1.47;;
11344;SDS011;5727;42.600;23.028;2022-09-25T10:56:03;3.60;;;1.80;;
11344;SDS011;5727;42.600;23.028;2022-09-25T10:58:34;1.77;;;1.17;;
11344;SDS011;5727;42.600;23.028;2022-09-25T11:01:07;1.93;;;1.30;;
11344;SDS011;5727;42.600;23.028;2022-09-25T11:03:37;3.17;;;1.83;;
11344;SDS011;5727;42.600;23.028;2022-09-25T11:06:14;1.70;;;1.40;;
11344;SDS011;5727;42.600;23.028;2022-09-25T11:08:45;1.67;;;1.40;;
11344;SDS011;5727;42.600;23.028;2022-09-25T11:11:19;3.83;;;1.40;;
11344;SDS011;5727;42.600;23.028;2022-09-25T11:13:51;1.70;;;1.50;;
11344;SDS011;5727;42.600;23.028;2022-09-25T11:16:21;1.70;;;1.20;;
11344;SDS011;5727;42.600;23.028;2022-09-25T11:19:10;2.50;;;1.37;;
11344;SDS011;5727;42.600;23.028;2022-09-25T11:21:39;1.70;;;1.40;;
11344;SDS011;5727;42.600;23.028;2022-09-25T11:24:13;1.37;;;1.10;;
11344;SDS011;5727;42.600;23.028;2022-09-25T11:26:48;1.57;;;1.30;;
11344;SDS011;5727;42.600;23.028;2022-09-25T11:29:20;2.87;;;1.30;;
11344;SDS011;5727;42.600;23.028;2022-09-25T11:31:55;3.20;;;1.20;;
11344;SDS011;5727;42.600;23.028;2022-09-25T11:34:33;3.27;;;1.30;;
11344;SDS011;5727;42.600;23.028;2022-09-25T11:37:17;1.40;;;1.23;;
11344;SDS011;5727;42.600;23.028;2022-09-25T11:39:47;1.70;;;1.30;;
11344;SDS011;5727;42.600;23.028;2022-09-25T11:42:37;1.57;;;1.40;;
11344;SDS011;5727;42.600;23.028;2022-09-25T11:45:13;4.20;;;1.30;;
11344;SDS011;5727;42.600;23.028;2022-09-25T11:47:47;2.17;;;1.23;;
11344;SDS011;5727;42.600;23.028;2022-09-25T11:50:19;1.47;;;1.10;;
11344;SDS011;5727;42.600;23.028;2022-09-25T11:52:55;2.23;;;1.20;;
11344;SDS011;5727;42.600;23.028;2022-09-25T11:55:38;2.10;;;1.23;;
11344;SDS011;5727;42.600;23.028;2022-09-25T12:01:17;1.17;;;0.97;;
11344;SDS011;5727;42.600;23.028;2022-09-25T12:03:59;3.00;;;1.10;;
11344;SDS011;5727;42.600;23.028;2022-09-25T12:06:44;1.23;;;1.00;;
11344;SDS011;5727;42.600;23.028;2022-09-25T12:09:40;2.03;;;1.20;;
11344;SDS011;5727;42.600;23.028;2022-09-25T12:12:18;1.47;;;0.93;;
11344;SDS011;5727;42.600;23.028;2022-09-25T12:14:51;1.50;;;0.70;;
11344;SDS011;5727;42.600;23.028;2022-09-25T12:17:26;1.57;;;1.00;;
11344;SDS011;5727;42.600;23.028;2022-09-25T12:20:02;3.30;;;0.80;;
11344;SDS011;5727;42.600;23.028;2022-09-25T12:22:39;0.90;;;0.63;;
11344;SDS011;5727;42.600;23.028;2022-09-25T12:25:15;1.30;;;0.70;;
11344;SDS011;5727;42.600;23.028;2022-09-25T12:27:56;2.17;;;1.00;;
11344;SDS011;5727;42.600;23.028;2022-09-25T12:30:30;2.03;;;0.88;;
11344;SDS011;5727;42.600;23.028;2022-09-25T12:33:05;1.97;;;0.80;;
11344;SDS011;5727;42.600;23.028;2022-09-25T12:35:48;0.90;;;0.60;;
11344;SDS011;5727;42.600;23.028;2022-09-25T12:38:21;1.40;;;0.57;;
11344;SDS011;5727;42.600;23.028;2022-09-25T12:40:58;2.03;;;0.70;;
11344;SDS011;5727;42.600;23.028;2022-09-25T12:43:31;2.37;;;1.10;;
11344;SDS011;5727;42.600;23.028;2022-09-25T12:46:06;1.80;;;0.60;;
11344;SDS011;5727;42.600;23.028;2022-09-25T12:48:38;2.97;;;0.87;;
11344;SDS011;5727;42.600;23.028;2022-09-25T12:51:12;1.00;;;0.67;;
11344;SDS011;5727;42.600;23.028;2022-09-25T12:53:43;1.00;;;0.60;;
11344;SDS011;5727;42.600;23.028;2022-09-25T12:56:15;1.40;;;0.60;;
11344;SDS011;5727;42.600;23.028;2022-09-25T12:58:48;1.77;;;0.50;;
11344;SDS011;5727;42.600;23.028;2022-09-25T13:01:24;2.00;;;0.60;;
11344;SDS011;5727;42.600;23.028;2022-09-25T13:04:01;4.47;;;0.60;;
11344;SDS011;5727;42.600;23.028;2022-09-25T13:06:38;1.43;;;0.60;;
11344;SDS011;5727;42.600;23.028;2022-09-25T13:09:11;0.93;;;0.50;;
11344;SDS011;5727;42.600;23.028;2022-09-25T13:11:46;1.10;;;0.80;;
11344;SDS011;5727;42.600;23.028;2022-09-25T13:14:24;2.00;;;0.80;;
11344;SDS011;5727;42.600;23.028;2022-09-25T13:16:55;1.80;;;0.70;;
11344;SDS011;5727;42.600;23.028;2022-09-25T13:19:23;1.07;;;0.60;;
11344;SDS011;5727;42.600;23.028;2022-09-25T13:21:58;4.27;;;1.00;;
11344;SDS011;5727;42.600;23.028;2022-09-25T13:24:28;2.22;;;0.70;;
11344;SDS011;5727;42.600;23.028;2022-09-25T13:26:58;2.15;;;0.82;;
11344;SDS011;5727;42.600;23.028;2022-09-25T13:29:29;0.90;;;0.50;;
11344;SDS011;5727;42.600;23.028;2022-09-25T13:32:01;0.80;;;0.50;;
11344;SDS011;5727;42.600;23.028;2022-09-25T13:34:32;1.10;;;0.60;;
11344;SDS011;5727;42.600;23.028;2022-09-25T13:37:04;1.40;;;0.47;;
11344;SDS011;5727;42.600;23.028;2022-09-25T13:39:34;1.20;;;0.60;;
11344;SDS011;5727;42.600;23.028;2022-09-25T13:42:21;1.50;;;0.80;;
11344;SDS011;5727;42.600;23.028;2022-09-25T13:45:04;0.90;;;0.60;;
11344;SDS011;5727;42.600;23.028;2022-09-25T13:48:04;0.80;;;0.60;;
11344;SDS011;5727;42.600;23.028;2022-09-25T13:50:35;1.77;;;0.53;;
11344;SDS011;5727;42.600;23.028;2022-09-25T13:56:16;1.40;;;0.57;;
11344;SDS011;5727;42.600;23.028;2022-09-25T13:59:02;3.30;;;0.70;;
11344;SDS011;5727;42.600;23.028;2022-09-25T14:01:45;1.07;;;0.53;;
11344;SDS011;5727;42.600;23.028;2022-09-25T14:04:22;1.20;;;0.70;;
11344;SDS011;5727;42.600;23.028;2022-09-25T14:06:55;2.77;;;0.80;;
11344;SDS011;5727;42.600;23.028;2022-09-25T14:09:31;2.07;;;0.73;;
11344;SDS011;5727;42.600;23.028;2022-09-25T14:12:05;4.33;;;1.10;;
11344;SDS011;5727;42.600;23.028;2022-09-25T14:14:41;2.07;;;0.80;;
11344;SDS011;5727;42.600;23.028;2022-09-25T14:17:16;4.43;;;0.80;;
11344;SDS011;5727;42.600;23.028;2022-09-25T14:19:46;1.47;;;0.70;;
11344;SDS011;5727;42.600;23.028;2022-09-25T14:22:17;2.50;;;0.60;;
11344;SDS011;5727;42.600;23.028;2022-09-25T14:24:53;2.83;;;0.50;;
11344;SDS011;5727;42.600;23.028;2022-09-25T14:27:21;0.93;;;0.60;;
11344;SDS011;5727;42.600;23.028;2022-09-25T14:29:50;2.40;;;0.80;;
11344;SDS011;5727;42.600;23.028;2022-09-25T14:32:22;1.43;;;0.70;;
11344;SDS011;5727;42.600;23.028;2022-09-25T14:35:04;2.00;;;0.73;;
11344;SDS011;5727;42.600;23.028;2022-09-25T14:37:47;2.03;;;0.70;;
11344;SDS011;5727;42.600;23.028;2022-09-25T14:40:27;2.03;;;0.67;;
11344;SDS011;5727;42.600;23.028;2022-09-25T14:43:04;6.17;;;0.70;;
11344;SDS011;5727;42.600;23.028;2022-09-25T14:48:38;1.67;;;0.67;;
11344;SDS011;5727;42.600;23.028;2022-09-25T14:51:11;1.57;;;0.57;;
11344;SDS011;5727;42.600;23.028;2022-09-25T14:53:40;3.93;;;1.03;;
11344;SDS011;5727;42.600;23.028;2022-09-25T14:56:11;2.93;;;0.73;;
11344;SDS011;5727;42.600;23.028;2022-09-25T14:58:47;2.00;;;0.80;;
11344;SDS011;5727;42.600;23.028;2022-09-25T15:01:17;1.10;;;0.60;;
11344;SDS011;5727;42.600;23.028;2022-09-25T15:03:51;1.87;;;0.90;;
11344;SDS011;5727;42.600;23.028;2022-09-25T15:06:24;1.67;;;1.03;;
11344;SDS011;5727;42.600;23.028;2022-09-25T15:08:53;1.67;;;0.80;;
11344;SDS011;5727;42.600;23.028;2022-09-25T15:11:22;1.67;;;0.70;;
11344;SDS011;5727;42.600;23.028;2022-09-25T15:13:53;2.23;;;0.90;;